sensor_id;sensor_type;location;lat;lon;timestamp;P1;durP1;ratioP1;P2;durP2;ratioP2
15102;SDS011;7652;53.584;9.998;2023-06-22T00:00:08;3.17;;;2.93;;
15102;SDS011;7652;53.584;9.998;2023-06-22T00:03:33;3.43;;;2.90;;
15102;SDS011;7652;53.584;9.998;2023-06-22T00:06:55;3.77;;;2.70;;
15102;SDS011;7652;53.584;9.998;2023-06-22T00:10:16;3.57;;;2.80;;
15102;SDS011;7652;53.584;9.998;2023-06-22T00:13:38;3.90;;;2.70;;
15102;SDS011;7652;53.584;9.998;2023-06-22T00:17:00;3.07;;;2.70;;
15102;SDS011;7652;53.584;9.998;2023-06-22T00:20:23;3.03;;;2.83;;
15102;SDS011;7652;53.584;9.998;2023-06-22T00:23:48;4.27;;;2.60;;
15102;SDS011;7652;53.584;9.998;2023-06-22T00:27:09;3.57;;;2.67;;
15102;SDS011;7652;53.584;9.998;2023-06-22T00:30:30;3.43;;;3.13;;
15102;SDS011;7652;53.584;9.998;2023-06-22T00:33:53;3.20;;;3.00;;
15102;SDS011;7652;53.584;9.998;2023-06-22T00:37:16;4.00;;;3.60;;
15102;SDS011;7652;53.584;9.998;2023-06-22T00:40:38;3.73;;;3.43;;
15102;SDS011;7652;53.584;9.998;2023-06-22T00:43:59;3.03;;;2.77;;
15102;SDS011;7652;53.584;9.998;2023-06-22T00:47:21;3.53;;;3.10;;
15102;SDS011;7652;53.584;9.998;2023-06-22T00:50:42;4.13;;;3.40;;
15102;SDS011;7652;53.584;9.998;2023-06-22T00:54:06;3.20;;;3.00;;
15102;SDS011;7652;53.584;9.998;2023-06-22T00:57:27;3.23;;;2.73;;
15102;SDS011;7652;53.584;9.998;2023-06-22T01:00:49;3.97;;;3.00;;
15102;SDS011;7652;53.584;9.998;2023-06-22T01:04:11;4.20;;;3.80;;
15102;SDS011;7652;53.584;9.998;2023-06-22T01:07:34;4.43;;;3.10;;
15102;SDS011;7652;53.584;9.998;2023-06-22T01:11:03;3.53;;;3.23;;
15102;SDS011;7652;53.584;9.998;2023-06-22T01:14:31;3.77;;;3.47;;
15102;SDS011;7652;53.584;9.998;2023-06-22T01:17:58;3.50;;;3.20;;
15102;SDS011;7652;53.584;9.998;2023-06-22T01:21:22;4.00;;;3.60;;
15102;SDS011;7652;53.584;9.998;2023-06-22T01:24:49;3.40;;;3.10;;
15102;SDS011;7652;53.584;9.998;2023-06-22T01:28:23;4.00;;;3.70;;
15102;SDS011;7652;53.584;9.998;2023-06-22T01:31:56;3.60;;;3.30;;
15102;SDS011;7652;53.584;9.998;2023-06-22T01:35:18;4.70;;;4.03;;
15102;SDS011;7652;53.584;9.998;2023-06-22T01:38:42;4.00;;;3.60;;
15102;SDS011;7652;53.584;9.998;2023-06-22T01:42:05;3.70;;;3.40;;
15102;SDS011;7652;53.584;9.998;2023-06-22T01:45:28;4.27;;;3.87;;
15102;SDS011;7652;53.584;9.998;2023-06-22T01:48:50;4.00;;;3.57;;
15102;SDS011;7652;53.584;9.998;2023-06-22T01:52:12;4.00;;;3.60;;
15102;SDS011;7652;53.584;9.998;2023-06-22T01:55:33;4.40;;;4.00;;
15102;SDS011;7652;53.584;9.998;2023-06-22T01:58:56;3.60;;;3.30;;
15102;SDS011;7652;53.584;9.998;2023-06-22T02:02:37;5.60;;;4.13;;
15102;SDS011;7652;53.584;9.998;2023-06-22T02:06:04;4.70;;;4.20;;
15102;SDS011;7652;53.584;9.998;2023-06-22T02:09:29;6.63;;;4.67;;
15102;SDS011;7652;53.584;9.998;2023-06-22T02:12:53;3.57;;;3.27;;
15102;SDS011;7652;53.584;9.998;2023-06-22T02:16:15;4.43;;;4.00;;
15102;SDS011;7652;53.584;9.998;2023-06-22T02:19:39;4.90;;;4.43;;
15102;SDS011;7652;53.584;9.998;2023-06-22T02:23:02;4.27;;;3.63;;
15102;SDS011;7652;53.584;9.998;2023-06-22T02:26:24;5.90;;;4.17;;
15102;SDS011;7652;53.584;9.998;2023-06-22T02:29:46;4.93;;;3.93;;
15102;SDS011;7652;53.584;9.998;2023-06-22T02:33:07;5.93;;;4.07;;
15102;SDS011;7652;53.584;9.998;2023-06-22T02:36:30;5.13;;;4.20;;
15102;SDS011;7652;53.584;9.998;2023-06-22T02:39:53;4.70;;;4.07;;
15102;SDS011;7652;53.584;9.998;2023-06-22T02:43:14;4.60;;;4.13;;
15102;SDS011;7652;53.584;9.998;2023-06-22T02:46:36;5.23;;;4.30;;
15102;SDS011;7652;53.584;9.998;2023-06-22T02:49:57;6.27;;;4.37;;
15102;SDS011;7652;53.584;9.998;2023-06-22T02:53:20;6.10;;;4.63;;
15102;SDS011;7652;53.584;9.998;2023-06-22T02:56:42;4.83;;;4.43;;
15102;SDS011;7652;53.584;9.998;2023-06-22T03:00:04;4.70;;;4.30;;
15102;SDS011;7652;53.584;9.998;2023-06-22T03:03:36;5.03;;;4.43;;
15102;SDS011;7652;53.584;9.998;2023-06-22T03:06:58;4.47;;;4.07;;
15102;SDS011;7652;53.584;9.998;2023-06-22T03:10:22;5.40;;;4.87;;
15102;SDS011;7652;53.584;9.998;2023-06-22T03:13:43;5.23;;;4.70;;
15102;SDS011;7652;53.584;9.998;2023-06-22T03:17:06;6.67;;;4.20;;
15102;SDS011;7652;53.584;9.998;2023-06-22T03:20:27;5.03;;;4.53;;
15102;SDS011;7652;53.584;9.998;2023-06-22T03:23:53;6.23;;;4.20;;
15102;SDS011;7652;53.584;9.998;2023-06-22T03:27:16;4.83;;;4.43;;
15102;SDS011;7652;53.584;9.998;2023-06-22T03:30:37;4.60;;;4.20;;
15102;SDS011;7652;53.584;9.998;2023-06-22T03:33:59;4.57;;;4.17;;
15102;SDS011;7652;53.584;9.998;2023-06-22T03:37:21;5.13;;;4.70;;
15102;SDS011;7652;53.584;9.998;2023-06-22T03:40:42;5.90;;;5.20;;
15102;SDS011;7652;53.584;9.998;2023-06-22T03:44:05;6.57;;;5.00;;
15102;SDS011;7652;53.584;9.998;2023-06-22T03:47:26;8.67;;;5.07;;
15102;SDS011;7652;53.584;9.998;2023-06-22T03:50:48;6.57;;;5.87;;
15102;SDS011;7652;53.584;9.998;2023-06-22T03:54:09;5.63;;;5.10;;
15102;SDS011;7652;53.584;9.998;2023-06-22T03:57:31;7.50;;;5.47;;
15102;SDS011;7652;53.584;9.998;2023-06-22T04:00:53;4.90;;;4.50;;
15102;SDS011;7652;53.584;9.998;2023-06-22T04:04:15;5.87;;;5.27;;
15102;SDS011;7652;53.584;9.998;2023-06-22T04:07:37;5.97;;;4.40;;
15102;SDS011;7652;53.584;9.998;2023-06-22T04:10:59;4.83;;;4.43;;
15102;SDS011;7652;53.584;9.998;2023-06-22T04:14:20;6.73;;;4.77;;
15102;SDS011;7652;53.584;9.998;2023-06-22T04:17:43;6.73;;;4.93;;
15102;SDS011;7652;53.584;9.998;2023-06-22T04:21:04;5.93;;;4.87;;
15102;SDS011;7652;53.584;9.998;2023-06-22T04:24:26;5.87;;;4.30;;
15102;SDS011;7652;53.584;9.998;2023-06-22T04:27:47;5.50;;;4.77;;
15102;SDS011;7652;53.584;9.998;2023-06-22T04:31:09;6.47;;;4.90;;
15102;SDS011;7652;53.584;9.998;2023-06-22T04:34:32;6.00;;;4.70;;
15102;SDS011;7652;53.584;9.998;2023-06-22T04:37:56;5.57;;;4.70;;
15102;SDS011;7652;53.584;9.998;2023-06-22T04:41:19;5.50;;;4.50;;
15102;SDS011;7652;53.584;9.998;2023-06-22T04:44:44;5.93;;;4.30;;
15102;SDS011;7652;53.584;9.998;2023-06-22T04:48:05;5.17;;;4.47;;
15102;SDS011;7652;53.584;9.998;2023-06-22T04:51:29;6.07;;;3.93;;
15102;SDS011;7652;53.584;9.998;2023-06-22T04:54:51;4.90;;;4.40;;
15102;SDS011;7652;53.584;9.998;2023-06-22T04:58:15;4.83;;;4.37;;
15102;SDS011;7652;53.584;9.998;2023-06-22T05:01:40;4.47;;;4.07;;
15102;SDS011;7652;53.584;9.998;2023-06-22T05:05:01;5.63;;;4.60;;
15102;SDS011;7652;53.584;9.998;2023-06-22T05:08:28;3.83;;;3.53;;
15102;SDS011;7652;53.584;9.998;2023-06-22T05:11:49;4.43;;;4.03;;
15102;SDS011;7652;53.584;9.998;2023-06-22T05:15:10;5.20;;;3.87;;
15102;SDS011;7652;53.584;9.998;2023-06-22T05:18:32;4.93;;;4.20;;
15102;SDS011;7652;53.584;9.998;2023-06-22T05:21:55;4.43;;;3.97;;
15102;SDS011;7652;53.584;9.998;2023-06-22T05:25:17;4.87;;;3.93;;
15102;SDS011;7652;53.584;9.998;2023-06-22T05:28:39;6.17;;;4.13;;
15102;SDS011;7652;53.584;9.998;2023-06-22T05:32:01;3.50;;;3.20;;
15102;SDS011;7652;53.584;9.998;2023-06-22T05:35:22;3.43;;;3.10;;
15102;SDS011;7652;53.584;9.998;2023-06-22T05:38:44;3.10;;;2.50;;
15102;SDS011;7652;53.584;9.998;2023-06-22T05:42:06;3.33;;;3.00;;
15102;SDS011;7652;53.584;9.998;2023-06-22T05:45:30;3.60;;;2.83;;
15102;SDS011;7652;53.584;9.998;2023-06-22T05:48:51;3.80;;;2.83;;
15102;SDS011;7652;53.584;9.998;2023-06-22T05:52:13;2.80;;;2.40;;
15102;SDS011;7652;53.584;9.998;2023-06-22T05:55:34;3.43;;;2.70;;
15102;SDS011;7652;53.584;9.998;2023-06-22T05:58:57;3.70;;;2.90;;
15102;SDS011;7652;53.584;9.998;2023-06-22T06:02:19;3.57;;;2.83;;
15102;SDS011;7652;53.584;9.998;2023-06-22T06:05:40;4.10;;;3.00;;
15102;SDS011;7652;53.584;9.998;2023-06-22T06:09:03;3.63;;;2.67;;
15102;SDS011;7652;53.584;9.998;2023-06-22T06:12:24;3.27;;;2.97;;
15102;SDS011;7652;53.584;9.998;2023-06-22T06:15:47;2.60;;;2.40;;
15102;SDS011;7652;53.584;9.998;2023-06-22T06:19:11;3.13;;;2.60;;
15102;SDS011;7652;53.584;9.998;2023-06-22T06:22:32;2.57;;;2.37;;
15102;SDS011;7652;53.584;9.998;2023-06-22T06:25:53;2.63;;;2.30;;
15102;SDS011;7652;53.584;9.998;2023-06-22T06:29:15;3.13;;;2.30;;
15102;SDS011;7652;53.584;9.998;2023-06-22T06:32:38;2.87;;;2.33;;
15102;SDS011;7652;53.584;9.998;2023-06-22T06:36:00;2.83;;;2.37;;
15102;SDS011;7652;53.584;9.998;2023-06-22T06:39:23;4.90;;;2.60;;
15102;SDS011;7652;53.584;9.998;2023-06-22T06:42:45;3.53;;;2.40;;
15102;SDS011;7652;53.584;9.998;2023-06-22T06:46:08;2.70;;;2.50;;
15102;SDS011;7652;53.584;9.998;2023-06-22T06:49:31;2.43;;;2.23;;
15102;SDS011;7652;53.584;9.998;2023-06-22T06:52:54;2.80;;;2.40;;
15102;SDS011;7652;53.584;9.998;2023-06-22T06:56:16;3.00;;;2.00;;
15102;SDS011;7652;53.584;9.998;2023-06-22T06:59:38;3.70;;;2.60;;
15102;SDS011;7652;53.584;9.998;2023-06-22T07:03:00;4.33;;;3.70;;
15102;SDS011;7652;53.584;9.998;2023-06-22T07:06:26;3.00;;;2.60;;
15102;SDS011;7652;53.584;9.998;2023-06-22T07:09:52;2.50;;;2.30;;
15102;SDS011;7652;53.584;9.998;2023-06-22T07:13:13;3.10;;;2.80;;
15102;SDS011;7652;53.584;9.998;2023-06-22T07:16:35;3.27;;;2.50;;
15102;SDS011;7652;53.584;9.998;2023-06-22T07:19:56;5.17;;;2.80;;
15102;SDS011;7652;53.584;9.998;2023-06-22T07:23:18;3.13;;;2.50;;
15102;SDS011;7652;53.584;9.998;2023-06-22T07:26:40;4.33;;;2.67;;
15102;SDS011;7652;53.584;9.998;2023-06-22T07:30:05;3.63;;;2.57;;
15102;SDS011;7652;53.584;9.998;2023-06-22T07:33:28;2.80;;;2.50;;
15102;SDS011;7652;53.584;9.998;2023-06-22T07:36:49;3.00;;;2.70;;
15102;SDS011;7652;53.584;9.998;2023-06-22T07:40:12;4.87;;;2.97;;
15102;SDS011;7652;53.584;9.998;2023-06-22T07:43:34;4.53;;;2.83;;
15102;SDS011;7652;53.584;9.998;2023-06-22T07:46:57;2.63;;;2.20;;
15102;SDS011;7652;53.584;9.998;2023-06-22T07:50:18;3.73;;;2.40;;
15102;SDS011;7652;53.584;9.998;2023-06-22T07:53:40;3.00;;;2.50;;
15102;SDS011;7652;53.584;9.998;2023-06-22T07:57:03;4.40;;;2.60;;
15102;SDS011;7652;53.584;9.998;2023-06-22T08:00:25;3.50;;;3.20;;
15102;SDS011;7652;53.584;9.998;2023-06-22T08:03:47;3.37;;;2.40;;
15102;SDS011;7652;53.584;9.998;2023-06-22T08:07:09;7.27;;;3.00;;
15102;SDS011;7652;53.584;9.998;2023-06-22T08:10:30;2.67;;;2.47;;
15102;SDS011;7652;53.584;9.998;2023-06-22T08:13:53;2.93;;;2.50;;
15102;SDS011;7652;53.584;9.998;2023-06-22T08:17:15;3.43;;;2.60;;
15102;SDS011;7652;53.584;9.998;2023-06-22T08:20:36;2.23;;;1.97;;
15102;SDS011;7652;53.584;9.998;2023-06-22T08:23:58;2.73;;;2.47;;
15102;SDS011;7652;53.584;9.998;2023-06-22T08:27:20;3.00;;;2.60;;
15102;SDS011;7652;53.584;9.998;2023-06-22T08:30:45;4.07;;;2.50;;
15102;SDS011;7652;53.584;9.998;2023-06-22T08:34:06;2.40;;;2.20;;
15102;SDS011;7652;53.584;9.998;2023-06-22T08:37:28;3.00;;;2.27;;
15102;SDS011;7652;53.584;9.998;2023-06-22T08:40:51;2.33;;;2.00;;
15102;SDS011;7652;53.584;9.998;2023-06-22T08:44:12;2.97;;;2.67;;
15102;SDS011;7652;53.584;9.998;2023-06-22T08:47:35;2.87;;;2.33;;
15102;SDS011;7652;53.584;9.998;2023-06-22T08:50:57;2.80;;;2.50;;
15102;SDS011;7652;53.584;9.998;2023-06-22T08:54:18;2.57;;;2.20;;
15102;SDS011;7652;53.584;9.998;2023-06-22T08:57:39;4.73;;;2.63;;
15102;SDS011;7652;53.584;9.998;2023-06-22T09:01:03;2.63;;;2.33;;
15102;SDS011;7652;53.584;9.998;2023-06-22T09:04:25;2.33;;;2.13;;
15102;SDS011;7652;53.584;9.998;2023-06-22T09:07:48;2.70;;;2.50;;
15102;SDS011;7652;53.584;9.998;2023-06-22T09:11:09;3.33;;;2.30;;
15102;SDS011;7652;53.584;9.998;2023-06-22T09:14:31;3.17;;;2.40;;
15102;SDS011;7652;53.584;9.998;2023-06-22T09:17:52;3.83;;;2.60;;
15102;SDS011;7652;53.584;9.998;2023-06-22T09:21:16;2.60;;;2.40;;
15102;SDS011;7652;53.584;9.998;2023-06-22T09:24:38;3.00;;;2.60;;
15102;SDS011;7652;53.584;9.998;2023-06-22T09:27:59;2.47;;;2.27;;
15102;SDS011;7652;53.584;9.998;2023-06-22T09:31:20;4.17;;;3.30;;
15102;SDS011;7652;53.584;9.998;2023-06-22T09:34:45;4.80;;;2.60;;
15102;SDS011;7652;53.584;9.998;2023-06-22T09:38:08;3.80;;;2.83;;
15102;SDS011;7652;53.584;9.998;2023-06-22T09:41:29;4.27;;;3.20;;
15102;SDS011;7652;53.584;9.998;2023-06-22T09:44:50;3.27;;;2.37;;
15102;SDS011;7652;53.584;9.998;2023-06-22T09:48:12;2.90;;;2.50;;
15102;SDS011;7652;53.584;9.998;2023-06-22T09:51:34;5.90;;;3.73;;
15102;SDS011;7652;53.584;9.998;2023-06-22T09:54:56;4.73;;;3.30;;
15102;SDS011;7652;53.584;9.998;2023-06-22T09:58:18;3.33;;;2.60;;
15102;SDS011;7652;53.584;9.998;2023-06-22T10:01:39;3.40;;;2.60;;
15102;SDS011;7652;53.584;9.998;2023-06-22T10:05:01;3.43;;;2.40;;
15102;SDS011;7652;53.584;9.998;2023-06-22T10:08:23;2.57;;;2.23;;
15102;SDS011;7652;53.584;9.998;2023-06-22T10:11:45;2.63;;;2.30;;
15102;SDS011;7652;53.584;9.998;2023-06-22T10:15:07;3.47;;;2.40;;
15102;SDS011;7652;53.584;9.998;2023-06-22T10:18:30;2.47;;;2.27;;
15102;SDS011;7652;53.584;9.998;2023-06-22T10:21:51;2.20;;;2.00;;
15102;SDS011;7652;53.584;9.998;2023-06-22T10:25:13;2.97;;;2.50;;
15102;SDS011;7652;53.584;9.998;2023-06-22T10:28:36;3.50;;;3.20;;
15102;SDS011;7652;53.584;9.998;2023-06-22T10:31:57;2.40;;;2.20;;
15102;SDS011;7652;53.584;9.998;2023-06-22T10:35:19;2.30;;;2.10;;
15102;SDS011;7652;53.584;9.998;2023-06-22T10:38:40;3.60;;;2.70;;
15102;SDS011;7652;53.584;9.998;2023-06-22T10:42:02;3.93;;;2.50;;
15102;SDS011;7652;53.584;9.998;2023-06-22T10:45:25;3.90;;;2.80;;
15102;SDS011;7652;53.584;9.998;2023-06-22T10:48:49;5.13;;;2.90;;
15102;SDS011;7652;53.584;9.998;2023-06-22T10:52:10;2.60;;;2.40;;
15102;SDS011;7652;53.584;9.998;2023-06-22T10:55:33;2.73;;;2.53;;
15102;SDS011;7652;53.584;9.998;2023-06-22T10:59:14;2.50;;;2.30;;
15102;SDS011;7652;53.584;9.998;2023-06-22T11:02:38;2.83;;;2.50;;
15102;SDS011;7652;53.584;9.998;2023-06-22T11:06:00;2.67;;;2.47;;
15102;SDS011;7652;53.584;9.998;2023-06-22T11:09:21;2.80;;;2.60;;
15102;SDS011;7652;53.584;9.998;2023-06-22T11:12:47;3.20;;;2.53;;
15102;SDS011;7652;53.584;9.998;2023-06-22T11:16:08;2.70;;;2.50;;
15102;SDS011;7652;53.584;9.998;2023-06-22T11:19:32;3.73;;;3.30;;
15102;SDS011;7652;53.584;9.998;2023-06-22T11:22:53;3.50;;;3.17;;
15102;SDS011;7652;53.584;9.998;2023-06-22T11:26:15;2.90;;;2.60;;
15102;SDS011;7652;53.584;9.998;2023-06-22T11:29:36;3.40;;;2.87;;
15102;SDS011;7652;53.584;9.998;2023-06-22T11:32:59;3.63;;;3.30;;
15102;SDS011;7652;53.584;9.998;2023-06-22T11:36:22;4.93;;;3.53;;
15102;SDS011;7652;53.584;9.998;2023-06-22T11:39:44;5.07;;;3.17;;
15102;SDS011;7652;53.584;9.998;2023-06-22T11:43:18;3.17;;;2.87;;
15102;SDS011;7652;53.584;9.998;2023-06-22T11:46:39;3.50;;;3.17;;
15102;SDS011;7652;53.584;9.998;2023-06-22T11:50:01;3.40;;;2.87;;
15102;SDS011;7652;53.584;9.998;2023-06-22T11:53:24;4.03;;;3.07;;
15102;SDS011;7652;53.584;9.998;2023-06-22T11:56:46;2.73;;;2.53;;
15102;SDS011;7652;53.584;9.998;2023-06-22T12:00:09;3.50;;;3.20;;
15102;SDS011;7652;53.584;9.998;2023-06-22T12:03:36;3.50;;;3.20;;
15102;SDS011;7652;53.584;9.998;2023-06-22T12:06:58;3.10;;;2.90;;
15102;SDS011;7652;53.584;9.998;2023-06-22T12:10:20;3.43;;;3.13;;
15102;SDS011;7652;53.584;9.998;2023-06-22T12:13:42;3.77;;;3.13;;
15102;SDS011;7652;53.584;9.998;2023-06-22T12:17:04;3.30;;;2.87;;
15102;SDS011;7652;53.584;9.998;2023-06-22T12:20:25;3.30;;;3.00;;
15102;SDS011;7652;53.584;9.998;2023-06-22T12:23:47;4.00;;;3.53;;
15102;SDS011;7652;53.584;9.998;2023-06-22T12:27:10;3.00;;;2.80;;
15102;SDS011;7652;53.584;9.998;2023-06-22T12:30:32;3.90;;;3.50;;
15102;SDS011;7652;53.584;9.998;2023-06-22T12:33:53;4.17;;;3.37;;
15102;SDS011;7652;53.584;9.998;2023-06-22T12:37:15;3.50;;;3.30;;
15102;SDS011;7652;53.584;9.998;2023-06-22T12:40:36;4.03;;;3.73;;
15102;SDS011;7652;53.584;9.998;2023-06-22T12:43:59;3.97;;;3.60;;
15102;SDS011;7652;53.584;9.998;2023-06-22T12:47:21;3.70;;;3.40;;
15102;SDS011;7652;53.584;9.998;2023-06-22T12:50:42;4.07;;;3.67;;
15102;SDS011;7652;53.584;9.998;2023-06-22T12:54:04;3.73;;;3.43;;
15102;SDS011;7652;53.584;9.998;2023-06-22T12:57:25;3.70;;;3.40;;
15102;SDS011;7652;53.584;9.998;2023-06-22T13:00:49;3.90;;;3.60;;
15102;SDS011;7652;53.584;9.998;2023-06-22T13:04:10;3.87;;;3.47;;
15102;SDS011;7652;53.584;9.998;2023-06-22T13:07:34;4.10;;;3.80;;
15102;SDS011;7652;53.584;9.998;2023-06-22T13:10:55;4.30;;;3.90;;
15102;SDS011;7652;53.584;9.998;2023-06-22T13:14:17;4.50;;;3.40;;
15102;SDS011;7652;53.584;9.998;2023-06-22T13:17:39;4.22;;;3.78;;
15102;SDS011;7652;53.584;9.998;2023-06-22T13:21:01;4.77;;;4.00;;
15102;SDS011;7652;53.584;9.998;2023-06-22T13:24:23;3.92;;;3.53;;
15102;SDS011;7652;53.584;9.998;2023-06-22T13:27:44;4.10;;;3.70;;
15102;SDS011;7652;53.584;9.998;2023-06-22T13:31:06;3.60;;;3.30;;
15102;SDS011;7652;53.584;9.998;2023-06-22T13:34:31;3.50;;;3.20;;
15102;SDS011;7652;53.584;9.998;2023-06-22T13:37:52;4.15;;;3.85;;
15102;SDS011;7652;53.584;9.998;2023-06-22T13:41:14;4.88;;;4.47;;
15102;SDS011;7652;53.584;9.998;2023-06-22T13:44:35;3.93;;;3.63;;
15102;SDS011;7652;53.584;9.998;2023-06-22T13:47:57;4.30;;;3.90;;
15102;SDS011;7652;53.584;9.998;2023-06-22T13:51:19;3.60;;;3.33;;
15102;SDS011;7652;53.584;9.998;2023-06-22T13:54:40;5.70;;;3.50;;
15102;SDS011;7652;53.584;9.998;2023-06-22T13:58:02;3.50;;;3.20;;
15102;SDS011;7652;53.584;9.998;2023-06-22T14:01:23;4.33;;;4.00;;
15102;SDS011;7652;53.584;9.998;2023-06-22T14:04:45;3.93;;;3.50;;
15102;SDS011;7652;53.584;9.998;2023-06-22T14:08:08;4.23;;;3.80;;
15102;SDS011;7652;53.584;9.998;2023-06-22T14:11:50;4.37;;;3.97;;
15102;SDS011;7652;53.584;9.998;2023-06-22T14:15:11;4.70;;;3.80;;
15102;SDS011;7652;53.584;9.998;2023-06-22T14:18:32;5.10;;;4.10;;
15102;SDS011;7652;53.584;9.998;2023-06-22T14:21:54;4.93;;;4.43;;
15102;SDS011;7652;53.584;9.998;2023-06-22T14:25:17;3.93;;;3.63;;
15102;SDS011;7652;53.584;9.998;2023-06-22T14:28:39;4.27;;;3.50;;
15102;SDS011;7652;53.584;9.998;2023-06-22T14:32:00;3.60;;;3.30;;
15102;SDS011;7652;53.584;9.998;2023-06-22T14:35:22;3.80;;;3.47;;
15102;SDS011;7652;53.584;9.998;2023-06-22T14:38:44;4.10;;;3.80;;
15102;SDS011;7652;53.584;9.998;2023-06-22T14:42:08;3.73;;;3.50;;
15102;SDS011;7652;53.584;9.998;2023-06-22T14:45:29;3.90;;;3.60;;
15102;SDS011;7652;53.584;9.998;2023-06-22T14:48:51;3.73;;;3.37;;
15102;SDS011;7652;53.584;9.998;2023-06-22T14:52:12;4.27;;;3.97;;
15102;SDS011;7652;53.584;9.998;2023-06-22T14:55:34;3.70;;;3.40;;
15102;SDS011;7652;53.584;9.998;2023-06-22T14:58:57;4.20;;;3.80;;
15102;SDS011;7652;53.584;9.998;2023-06-22T15:02:18;4.13;;;3.70;;
15102;SDS011;7652;53.584;9.998;2023-06-22T15:05:40;4.20;;;3.80;;
15102;SDS011;7652;53.584;9.998;2023-06-22T15:09:01;3.80;;;3.50;;
15102;SDS011;7652;53.584;9.998;2023-06-22T15:12:23;3.73;;;3.43;;
15102;SDS011;7652;53.584;9.998;2023-06-22T15:15:45;4.27;;;3.97;;
15102;SDS011;7652;53.584;9.998;2023-06-22T15:19:08;4.13;;;3.77;;
15102;SDS011;7652;53.584;9.998;2023-06-22T15:22:29;4.73;;;4.23;;
15102;SDS011;7652;53.584;9.998;2023-06-22T15:25:51;4.47;;;4.07;;
15102;SDS011;7652;53.584;9.998;2023-06-22T15:29:12;4.03;;;3.63;;
15102;SDS011;7652;53.584;9.998;2023-06-22T15:32:35;4.47;;;3.40;;
15102;SDS011;7652;53.584;9.998;2023-06-22T15:35:57;4.43;;;4.03;;
15102;SDS011;7652;53.584;9.998;2023-06-22T15:39:23;3.57;;;3.33;;
15102;SDS011;7652;53.584;9.998;2023-06-22T15:42:49;4.53;;;4.17;;
15102;SDS011;7652;53.584;9.998;2023-06-22T15:46:13;5.50;;;5.00;;
15102;SDS011;7652;53.584;9.998;2023-06-22T15:49:37;5.07;;;4.57;;
15102;SDS011;7652;53.584;9.998;2023-06-22T15:52:58;4.27;;;3.87;;
15102;SDS011;7652;53.584;9.998;2023-06-22T15:56:20;4.00;;;3.60;;
15102;SDS011;7652;53.584;9.998;2023-06-22T15:59:43;5.30;;;3.73;;
15102;SDS011;7652;53.584;9.998;2023-06-22T16:03:04;3.50;;;3.20;;
15102;SDS011;7652;53.584;9.998;2023-06-22T16:06:28;3.87;;;3.47;;
15102;SDS011;7652;53.584;9.998;2023-06-22T16:09:49;3.27;;;3.07;;
15102;SDS011;7652;53.584;9.998;2023-06-22T16:13:10;3.53;;;3.00;;
15102;SDS011;7652;53.584;9.998;2023-06-22T16:16:32;3.27;;;3.03;;
15102;SDS011;7652;53.584;9.998;2023-06-22T16:19:53;2.80;;;2.60;;
15102;SDS011;7652;53.584;9.998;2023-06-22T16:23:18;3.50;;;2.63;;
15102;SDS011;7652;53.584;9.998;2023-06-22T16:26:43;2.80;;;2.60;;
15102;SDS011;7652;53.584;9.998;2023-06-22T16:30:07;3.17;;;2.97;;
15102;SDS011;7652;53.584;9.998;2023-06-22T16:33:28;3.43;;;2.87;;
15102;SDS011;7652;53.584;9.998;2023-06-22T16:36:50;3.50;;;2.90;;
15102;SDS011;7652;53.584;9.998;2023-06-22T16:40:13;3.07;;;2.70;;
15102;SDS011;7652;53.584;9.998;2023-06-22T16:43:40;3.63;;;3.23;;
15102;SDS011;7652;53.584;9.998;2023-06-22T16:47:01;4.47;;;3.93;;
15102;SDS011;7652;53.584;9.998;2023-06-22T16:50:25;2.80;;;2.60;;
15102;SDS011;7652;53.584;9.998;2023-06-22T16:53:47;2.70;;;2.50;;
15102;SDS011;7652;53.584;9.998;2023-06-22T16:57:15;2.90;;;2.60;;
15102;SDS011;7652;53.584;9.998;2023-06-22T17:00:39;2.83;;;2.63;;
15102;SDS011;7652;53.584;9.998;2023-06-22T17:04:02;2.47;;;2.20;;
15102;SDS011;7652;53.584;9.998;2023-06-22T17:07:27;2.57;;;2.37;;
15102;SDS011;7652;53.584;9.998;2023-06-22T17:10:51;4.10;;;2.77;;
15102;SDS011;7652;53.584;9.998;2023-06-22T17:14:14;3.00;;;2.80;;
15102;SDS011;7652;53.584;9.998;2023-06-22T17:17:36;2.77;;;2.57;;
15102;SDS011;7652;53.584;9.998;2023-06-22T17:20:59;3.60;;;2.33;;
15102;SDS011;7652;53.584;9.998;2023-06-22T17:24:21;3.33;;;2.80;;
15102;SDS011;7652;53.584;9.998;2023-06-22T17:27:46;4.07;;;3.03;;
15102;SDS011;7652;53.584;9.998;2023-06-22T17:31:10;4.17;;;3.10;;
15102;SDS011;7652;53.584;9.998;2023-06-22T17:34:32;2.63;;;2.43;;
15102;SDS011;7652;53.584;9.998;2023-06-22T17:37:54;2.83;;;2.53;;
15102;SDS011;7652;53.584;9.998;2023-06-22T17:41:16;2.70;;;2.50;;
15102;SDS011;7652;53.584;9.998;2023-06-22T17:44:37;3.40;;;2.40;;
15102;SDS011;7652;53.584;9.998;2023-06-22T17:48:02;2.90;;;2.50;;
15102;SDS011;7652;53.584;9.998;2023-06-22T17:51:29;2.10;;;1.90;;
15102;SDS011;7652;53.584;9.998;2023-06-22T17:54:51;5.30;;;2.40;;
15102;SDS011;7652;53.584;9.998;2023-06-22T17:58:15;3.10;;;1.80;;
15102;SDS011;7652;53.584;9.998;2023-06-22T18:01:37;2.93;;;2.13;;
15102;SDS011;7652;53.584;9.998;2023-06-22T18:05:03;4.13;;;1.90;;
15102;SDS011;7652;53.584;9.998;2023-06-22T18:08:26;1.87;;;1.77;;
15102;SDS011;7652;53.584;9.998;2023-06-22T18:11:49;3.13;;;2.00;;
15102;SDS011;7652;53.584;9.998;2023-06-22T18:15:11;2.60;;;1.60;;
15102;SDS011;7652;53.584;9.998;2023-06-22T18:18:34;2.00;;;1.80;;
15102;SDS011;7652;53.584;9.998;2023-06-22T18:21:58;1.83;;;1.70;;
15102;SDS011;7652;53.584;9.998;2023-06-22T18:25:19;2.30;;;1.93;;
15102;SDS011;7652;53.584;9.998;2023-06-22T18:28:41;2.00;;;1.90;;
15102;SDS011;7652;53.584;9.998;2023-06-22T18:32:05;2.93;;;1.87;;
15102;SDS011;7652;53.584;9.998;2023-06-22T18:35:27;2.67;;;2.07;;
15102;SDS011;7652;53.584;9.998;2023-06-22T18:38:50;2.50;;;1.80;;
15102;SDS011;7652;53.584;9.998;2023-06-22T18:42:16;2.53;;;2.13;;
15102;SDS011;7652;53.584;9.998;2023-06-22T18:45:37;3.27;;;2.00;;
15102;SDS011;7652;53.584;9.998;2023-06-22T18:49:12;2.13;;;1.93;;
15102;SDS011;7652;53.584;9.998;2023-06-22T18:52:35;1.70;;;1.40;;
15102;SDS011;7652;53.584;9.998;2023-06-22T18:56:12;1.77;;;1.67;;
15102;SDS011;7652;53.584;9.998;2023-06-22T18:59:47;2.03;;;1.83;;
15102;SDS011;7652;53.584;9.998;2023-06-22T19:03:21;5.00;;;2.10;;
15102;SDS011;7652;53.584;9.998;2023-06-22T19:06:54;4.17;;;1.90;;
15102;SDS011;7652;53.584;9.998;2023-06-22T19:10:20;1.90;;;1.80;;
15102;SDS011;7652;53.584;9.998;2023-06-22T19:13:48;2.33;;;1.97;;
15102;SDS011;7652;53.584;9.998;2023-06-22T19:17:11;4.97;;;1.83;;
15102;SDS011;7652;53.584;9.998;2023-06-22T19:20:39;1.63;;;1.53;;
15102;SDS011;7652;53.584;9.998;2023-06-22T19:24:01;2.40;;;1.60;;
15102;SDS011;7652;53.584;9.998;2023-06-22T19:27:22;3.00;;;1.63;;
15102;SDS011;7652;53.584;9.998;2023-06-22T19:30:52;2.93;;;1.43;;
15102;SDS011;7652;53.584;9.998;2023-06-22T19:34:14;1.73;;;1.50;;
15102;SDS011;7652;53.584;9.998;2023-06-22T19:37:36;2.43;;;1.30;;
15102;SDS011;7652;53.584;9.998;2023-06-22T19:41:00;1.10;;;1.07;;
15102;SDS011;7652;53.584;9.998;2023-06-22T19:44:21;1.40;;;1.30;;
15102;SDS011;7652;53.584;9.998;2023-06-22T19:47:44;1.87;;;1.70;;
15102;SDS011;7652;53.584;9.998;2023-06-22T19:51:06;1.80;;;1.30;;
15102;SDS011;7652;53.584;9.998;2023-06-22T19:54:28;1.57;;;1.37;;
15102;SDS011;7652;53.584;9.998;2023-06-22T19:57:50;1.60;;;1.50;;
15102;SDS011;7652;53.584;9.998;2023-06-22T20:01:12;1.30;;;1.20;;
15102;SDS011;7652;53.584;9.998;2023-06-22T20:04:35;1.73;;;1.20;;
15102;SDS011;7652;53.584;9.998;2023-06-22T20:08:01;1.33;;;1.23;;
15102;SDS011;7652;53.584;9.998;2023-06-22T20:11:24;1.90;;;1.27;;
15102;SDS011;7652;53.584;9.998;2023-06-22T20:14:49;2.13;;;1.27;;
15102;SDS011;7652;53.584;9.998;2023-06-22T20:18:11;1.30;;;1.20;;
15102;SDS011;7652;53.584;9.998;2023-06-22T20:21:35;1.60;;;1.33;;
15102;SDS011;7652;53.584;9.998;2023-06-22T20:24:57;3.00;;;1.40;;
15102;SDS011;7652;53.584;9.998;2023-06-22T20:28:18;1.43;;;1.33;;
15102;SDS011;7652;53.584;9.998;2023-06-22T20:31:40;3.50;;;1.60;;
15102;SDS011;7652;53.584;9.998;2023-06-22T20:35:02;2.00;;;1.70;;
15102;SDS011;7652;53.584;9.998;2023-06-22T20:38:25;1.43;;;1.33;;